sensor_id;sensor_type;location;lat;lon;timestamp;temperature;humidity
15103;DHT22;7652;53.584;9.998;2023-12-07T00:15:41;2.90;99.90
15103;DHT22;7652;53.584;9.998;2023-12-07T00:19:02;2.90;99.90
15103;DHT22;7652;53.584;9.998;2023-12-07T00:22:24;3.00;99.90
15103;DHT22;7652;53.584;9.998;2023-12-07T00:25:47;3.00;99.90
15103;DHT22;7652;53.584;9.998;2023-12-07T00:29:08;3.20;99.90
15103;DHT22;7652;53.584;9.998;2023-12-07T00:32:31;3.00;99.90
15103;DHT22;7652;53.584;9.998;2023-12-07T00:35:52;2.90;99.90
15103;DHT22;7652;53.584;9.998;2023-12-07T00:39:14;3.00;99.90
15103;DHT22;7652;53.584;9.998;2023-12-07T00:42:36;3.10;99.90
15103;DHT22;7652;53.584;9.998;2023-12-07T00:45:58;3.00;99.90
15103;DHT22;7652;53.584;9.998;2023-12-07T00:49:21;3.10;99.90
15103;DHT22;7652;53.584;9.998;2023-12-07T00:52:43;3.20;99.90
15103;DHT22;7652;53.584;9.998;2023-12-07T00:56:07;3.10;99.90
15103;DHT22;7652;53.584;9.998;2023-12-07T00:59:28;3.10;99.90
15103;DHT22;7652;53.584;9.998;2023-12-07T01:02:54;3.10;99.90
15103;DHT22;7652;53.584;9.998;2023-12-07T01:06:17;3.00;99.90
15103;DHT22;7652;53.584;9.998;2023-12-07T01:09:39;3.10;99.90
15103;DHT22;7652;53.584;9.998;2023-12-07T01:13:01;3.10;99.90
15103;DHT22;7652;53.584;9.998;2023-12-07T01:16:22;3.20;99.90
15103;DHT22;7652;53.584;9.998;2023-12-07T01:19:45;3.10;99.90
15103;DHT22;7652;53.584;9.998;2023-12-07T01:23:08;2.90;99.90
15103;DHT22;7652;53.584;9.998;2023-12-07T01:26:33;2.90;99.90
15103;DHT22;7652;53.584;9.998;2023-12-07T01:29:54;2.90;99.90
15103;DHT22;7652;53.584;9.998;2023-12-07T01:33:16;3.00;99.90
15103;DHT22;7652;53.584;9.998;2023-12-07T01:36:38;3.10;99.90
15103;DHT22;7652;53.584;9.998;2023-12-07T01:40:01;3.20;99.90
15103;DHT22;7652;53.584;9.998;2023-12-07T01:43:26;3.30;99.90
15103;DHT22;7652;53.584;9.998;2023-12-07T01:46:47;3.40;99.90
15103;DHT22;7652;53.584;9.998;2023-12-07T01:50:10;3.40;99.90
15103;DHT22;7652;53.584;9.998;2023-12-07T01:53:35;3.30;99.90
15103;DHT22;7652;53.584;9.998;2023-12-07T01:56:58;3.30;99.90
15103;DHT22;7652;53.584;9.998;2023-12-07T02:00:20;3.10;99.90
15103;DHT22;7652;53.584;9.998;2023-12-07T02:03:42;3.00;99.90
15103;DHT22;7652;53.584;9.998;2023-12-07T02:07:04;3.00;99.90
15103;DHT22;7652;53.584;9.998;2023-12-07T02:10:26;3.10;99.90
15103;DHT22;7652;53.584;9.998;2023-12-07T02:13:49;3.10;99.90
15103;DHT22;7652;53.584;9.998;2023-12-07T02:17:19;3.20;99.90
15103;DHT22;7652;53.584;9.998;2023-12-07T02:20:45;3.20;99.90
15103;DHT22;7652;53.584;9.998;2023-12-07T02:24:11;3.20;99.90
15103;DHT22;7652;53.584;9.998;2023-12-07T02:27:35;3.10;99.90
15103;DHT22;7652;53.584;9.998;2023-12-07T02:30:57;3.20;99.90
15103;DHT22;7652;53.584;9.998;2023-12-07T02:34:18;3.10;99.90
15103;DHT22;7652;53.584;9.998;2023-12-07T02:37:42;3.20;99.90
15103;DHT22;7652;53.584;9.998;2023-12-07T02:41:04;3.10;99.90
15103;DHT22;7652;53.584;9.998;2023-12-07T02:44:28;3.30;99.90
15103;DHT22;7652;53.584;9.998;2023-12-07T02:47:50;3.40;99.90
15103;DHT22;7652;53.584;9.998;2023-12-07T02:51:11;3.50;99.90
15103;DHT22;7652;53.584;9.998;2023-12-07T02:54:33;3.50;99.90
15103;DHT22;7652;53.584;9.998;2023-12-07T02:57:54;3.50;99.90
15103;DHT22;7652;53.584;9.998;2023-12-07T03:01:17;3.60;99.90
15103;DHT22;7652;53.584;9.998;2023-12-07T03:04:40;3.30;99.90
15103;DHT22;7652;53.584;9.998;2023-12-07T03:08:02;3.20;99.90
15103;DHT22;7652;53.584;9.998;2023-12-07T03:11:24;3.30;99.90
15103;DHT22;7652;53.584;9.998;2023-12-07T03:14:46;3.40;99.90
15103;DHT22;7652;53.584;9.998;2023-12-07T03:18:08;3.50;99.90
15103;DHT22;7652;53.584;9.998;2023-12-07T03:21:30;3.50;99.90
15103;DHT22;7652;53.584;9.998;2023-12-07T03:24:52;3.50;99.90
15103;DHT22;7652;53.584;9.998;2023-12-07T03:28:14;3.60;99.90
15103;DHT22;7652;53.584;9.998;2023-12-07T03:31:35;3.50;99.90
15103;DHT22;7652;53.584;9.998;2023-12-07T03:34:58;3.40;99.90
15103;DHT22;7652;53.584;9.998;2023-12-07T03:38:19;3.30;99.90
15103;DHT22;7652;53.584;9.998;2023-12-07T03:41:41;3.40;99.90
15103;DHT22;7652;53.584;9.998;2023-12-07T03:45:04;3.30;99.90
15103;DHT22;7652;53.584;9.998;2023-12-07T03:48:26;3.30;99.90
15103;DHT22;7652;53.584;9.998;2023-12-07T03:51:49;3.40;99.90
15103;DHT22;7652;53.584;9.998;2023-12-07T03:55:10;3.50;99.90
15103;DHT22;7652;53.584;9.998;2023-12-07T03:58:32;3.50;99.90
15103;DHT22;7652;53.584;9.998;2023-12-07T04:01:55;3.50;99.90
15103;DHT22;7652;53.584;9.998;2023-12-07T04:05:17;3.50;99.90
15103;DHT22;7652;53.584;9.998;2023-12-07T04:08:39;3.50;99.90
15103;DHT22;7652;53.584;9.998;2023-12-07T04:12:01;3.40;99.90
15103;DHT22;7652;53.584;9.998;2023-12-07T04:15:23;3.50;99.90
15103;DHT22;7652;53.584;9.998;2023-12-07T04:18:44;3.40;99.90
15103;DHT22;7652;53.584;9.998;2023-12-07T04:22:05;3.30;99.90
15103;DHT22;7652;53.584;9.998;2023-12-07T04:25:28;3.20;99.90
15103;DHT22;7652;53.584;9.998;2023-12-07T04:28:50;3.30;99.90
15103;DHT22;7652;53.584;9.998;2023-12-07T04:32:11;3.40;99.90
15103;DHT22;7652;53.584;9.998;2023-12-07T04:35:34;3.30;99.90
15103;DHT22;7652;53.584;9.998;2023-12-07T04:38:56;3.20;99.90
15103;DHT22;7652;53.584;9.998;2023-12-07T04:42:19;3.30;99.90
15103;DHT22;7652;53.584;9.998;2023-12-07T04:45:40;3.30;99.90
15103;DHT22;7652;53.584;9.998;2023-12-07T04:49:02;3.50;99.90
15103;DHT22;7652;53.584;9.998;2023-12-07T04:52:24;3.50;99.90
15103;DHT22;7652;53.584;9.998;2023-12-07T04:55:46;3.60;99.90
15103;DHT22;7652;53.584;9.998;2023-12-07T04:59:11;3.70;99.90
15103;DHT22;7652;53.584;9.998;2023-12-07T05:02:33;3.70;99.90
15103;DHT22;7652;53.584;9.998;2023-12-07T05:05:54;3.80;99.90
15103;DHT22;7652;53.584;9.998;2023-12-07T05:09:15;3.80;99.90
15103;DHT22;7652;53.584;9.998;2023-12-07T05:12:37;3.80;99.90
15103;DHT22;7652;53.584;9.998;2023-12-07T05:15:59;3.80;99.90
15103;DHT22;7652;53.584;9.998;2023-12-07T05:19:21;3.70;99.90
15103;DHT22;7652;53.584;9.998;2023-12-07T05:22:43;3.80;99.90
15103;DHT22;7652;53.584;9.998;2023-12-07T05:26:04;3.70;99.90
15103;DHT22;7652;53.584;9.998;2023-12-07T05:29:28;3.60;99.90
15103;DHT22;7652;53.584;9.998;2023-12-07T05:32:51;3.60;99.90
15103;DHT22;7652;53.584;9.998;2023-12-07T05:36:13;3.70;99.90
15103;DHT22;7652;53.584;9.998;2023-12-07T05:39:34;3.70;99.90
15103;DHT22;7652;53.584;9.998;2023-12-07T05:42:56;3.70;99.90
15103;DHT22;7652;53.584;9.998;2023-12-07T05:46:17;3.70;99.90
15103;DHT22;7652;53.584;9.998;2023-12-07T05:49:40;3.50;99.90
15103;DHT22;7652;53.584;9.998;2023-12-07T05:53:01;3.60;99.90
15103;DHT22;7652;53.584;9.998;2023-12-07T05:56:23;3.50;99.90
15103;DHT22;7652;53.584;9.998;2023-12-07T05:59:45;3.50;99.90
15103;DHT22;7652;53.584;9.998;2023-12-07T06:03:06;3.30;99.90
15103;DHT22;7652;53.584;9.998;2023-12-07T06:06:30;3.30;99.90
15103;DHT22;7652;53.584;9.998;2023-12-07T06:09:52;3.30;99.90
15103;DHT22;7652;53.584;9.998;2023-12-07T06:13:13;3.30;99.90
15103;DHT22;7652;53.584;9.998;2023-12-07T06:16:35;3.40;99.90
15103;DHT22;7652;53.584;9.998;2023-12-07T06:19:56;3.40;99.90
15103;DHT22;7652;53.584;9.998;2023-12-07T06:23:19;3.30;99.90
15103;DHT22;7652;53.584;9.998;2023-12-07T06:26:40;3.30;99.90
15103;DHT22;7652;53.584;9.998;2023-12-07T06:30:02;3.30;99.90
15103;DHT22;7652;53.584;9.998;2023-12-07T06:33:26;3.60;99.90
15103;DHT22;7652;53.584;9.998;2023-12-07T06:36:47;3.70;99.90
15103;DHT22;7652;53.584;9.998;2023-12-07T06:40:11;3.70;99.90
15103;DHT22;7652;53.584;9.998;2023-12-07T06:43:33;3.90;99.90
15103;DHT22;7652;53.584;9.998;2023-12-07T06:46:54;3.80;99.90
15103;DHT22;7652;53.584;9.998;2023-12-07T06:50:16;3.80;99.90
15103;DHT22;7652;53.584;9.998;2023-12-07T06:53:37;3.90;99.90
15103;DHT22;7652;53.584;9.998;2023-12-07T06:57:02;3.90;99.90
15103;DHT22;7652;53.584;9.998;2023-12-07T07:00:23;3.80;99.90
15103;DHT22;7652;53.584;9.998;2023-12-07T07:03:46;3.80;99.90
15103;DHT22;7652;53.584;9.998;2023-12-07T07:07:07;3.80;99.90
15103;DHT22;7652;53.584;9.998;2023-12-07T07:10:28;3.70;99.90
15103;DHT22;7652;53.584;9.998;2023-12-07T07:13:51;3.70;99.90
15103;DHT22;7652;53.584;9.998;2023-12-07T07:17:13;3.80;99.90
15103;DHT22;7652;53.584;9.998;2023-12-07T07:20:35;3.90;99.90
15103;DHT22;7652;53.584;9.998;2023-12-07T07:23:57;3.90;99.90
15103;DHT22;7652;53.584;9.998;2023-12-07T07:27:18;4.00;99.90
15103;DHT22;7652;53.584;9.998;2023-12-07T07:30:41;3.90;99.90
15103;DHT22;7652;53.584;9.998;2023-12-07T07:34:03;3.90;99.90
15103;DHT22;7652;53.584;9.998;2023-12-07T07:37:26;4.00;99.90
15103;DHT22;7652;53.584;9.998;2023-12-07T07:40:48;3.90;99.90
15103;DHT22;7652;53.584;9.998;2023-12-07T07:44:10;3.90;99.90
15103;DHT22;7652;53.584;9.998;2023-12-07T07:47:32;4.00;99.90
15103;DHT22;7652;53.584;9.998;2023-12-07T07:50:54;4.00;99.90
15103;DHT22;7652;53.584;9.998;2023-12-07T07:54:15;4.10;99.90
15103;DHT22;7652;53.584;9.998;2023-12-07T07:57:37;4.10;99.90
15103;DHT22;7652;53.584;9.998;2023-12-07T08:00:59;4.10;99.90
15103;DHT22;7652;53.584;9.998;2023-12-07T08:04:21;4.10;99.90
15103;DHT22;7652;53.584;9.998;2023-12-07T08:07:43;4.10;99.90
15103;DHT22;7652;53.584;9.998;2023-12-07T08:11:04;4.00;99.90
15103;DHT22;7652;53.584;9.998;2023-12-07T08:14:26;4.00;99.90
15103;DHT22;7652;53.584;9.998;2023-12-07T08:17:47;3.90;99.90
15103;DHT22;7652;53.584;9.998;2023-12-07T08:21:18;3.90;99.90
15103;DHT22;7652;53.584;9.998;2023-12-07T08:24:45;3.90;99.90
15103;DHT22;7652;53.584;9.998;2023-12-07T08:28:16;3.90;99.90
15103;DHT22;7652;53.584;9.998;2023-12-07T08:31:40;4.10;99.90
15103;DHT22;7652;53.584;9.998;2023-12-07T08:35:02;4.10;99.90
15103;DHT22;7652;53.584;9.998;2023-12-07T08:38:25;4.20;99.90
15103;DHT22;7652;53.584;9.998;2023-12-07T08:41:46;4.10;99.90
15103;DHT22;7652;53.584;9.998;2023-12-07T08:45:08;3.90;99.90
15103;DHT22;7652;53.584;9.998;2023-12-07T08:48:29;3.90;99.90
15103;DHT22;7652;53.584;9.998;2023-12-07T08:51:52;4.00;99.90
15103;DHT22;7652;53.584;9.998;2023-12-07T08:55:35;4.30;99.90
15103;DHT22;7652;53.584;9.998;2023-12-07T08:58:57;4.30;99.90
15103;DHT22;7652;53.584;9.998;2023-12-07T09:02:18;4.40;99.90
15103;DHT22;7652;53.584;9.998;2023-12-07T09:05:57;4.50;99.90
15103;DHT22;7652;53.584;9.998;2023-12-07T09:09:19;4.50;99.90
15103;DHT22;7652;53.584;9.998;2023-12-07T09:12:42;4.40;99.90
15103;DHT22;7652;53.584;9.998;2023-12-07T09:16:04;4.50;99.90
15103;DHT22;7652;53.584;9.998;2023-12-07T09:19:26;4.70;99.90
15103;DHT22;7652;53.584;9.998;2023-12-07T09:22:47;4.90;99.90
15103;DHT22;7652;53.584;9.998;2023-12-07T09:26:10;5.00;99.90
15103;DHT22;7652;53.584;9.998;2023-12-07T09:29:33;5.00;99.90
15103;DHT22;7652;53.584;9.998;2023-12-07T09:32:54;5.10;99.90
15103;DHT22;7652;53.584;9.998;2023-12-07T09:36:16;5.10;99.90
15103;DHT22;7652;53.584;9.998;2023-12-07T09:39:38;5.20;99.90
15103;DHT22;7652;53.584;9.998;2023-12-07T09:43:00;5.30;99.90
15103;DHT22;7652;53.584;9.998;2023-12-07T09:46:23;5.00;99.90
15103;DHT22;7652;53.584;9.998;2023-12-07T09:49:44;5.00;99.90
15103;DHT22;7652;53.584;9.998;2023-12-07T09:53:08;4.90;99.90
15103;DHT22;7652;53.584;9.998;2023-12-07T09:56:29;4.80;99.90
15103;DHT22;7652;53.584;9.998;2023-12-07T09:59:50;4.80;99.90
15103;DHT22;7652;53.584;9.998;2023-12-07T10:03:21;4.80;99.90
15103;DHT22;7652;53.584;9.998;2023-12-07T10:06:44;4.80;99.90
15103;DHT22;7652;53.584;9.998;2023-12-07T10:10:06;4.90;99.90
15103;DHT22;7652;53.584;9.998;2023-12-07T10:13:29;5.00;99.90
15103;DHT22;7652;53.584;9.998;2023-12-07T10:16:54;4.90;99.90
15103;DHT22;7652;53.584;9.998;2023-12-07T10:20:19;5.00;99.90
15103;DHT22;7652;53.584;9.998;2023-12-07T10:23:44;4.90;99.90
15103;DHT22;7652;53.584;9.998;2023-12-07T10:27:09;4.80;99.90
15103;DHT22;7652;53.584;9.998;2023-12-07T10:30:31;4.70;99.90
15103;DHT22;7652;53.584;9.998;2023-12-07T10:33:53;4.80;99.90
15103;DHT22;7652;53.584;9.998;2023-12-07T10:37:16;4.80;99.90
15103;DHT22;7652;53.584;9.998;2023-12-07T10:40:38;4.80;99.90
15103;DHT22;7652;53.584;9.998;2023-12-07T10:44:01;4.70;99.90
15103;DHT22;7652;53.584;9.998;2023-12-07T10:47:23;4.60;99.90
15103;DHT22;7652;53.584;9.998;2023-12-07T10:50:46;4.60;99.90
15103;DHT22;7652;53.584;9.998;2023-12-07T10:54:17;4.60;99.90
15103;DHT22;7652;53.584;9.998;2023-12-07T10:57:40;4.60;99.90
15103;DHT22;7652;53.584;9.998;2023-12-07T11:01:02;4.60;99.90
15103;DHT22;7652;53.584;9.998;2023-12-07T11:04:25;4.60;99.90
15103;DHT22;7652;53.584;9.998;2023-12-07T11:07:57;4.50;99.90
15103;DHT22;7652;53.584;9.998;2023-12-07T11:11:27;4.60;99.90
15103;DHT22;7652;53.584;9.998;2023-12-07T11:14:50;4.70;99.90
15103;DHT22;7652;53.584;9.998;2023-12-07T11:18:12;4.40;99.90
15103;DHT22;7652;53.584;9.998;2023-12-07T11:21:35;4.40;99.90
15103;DHT22;7652;53.584;9.998;2023-12-07T11:24:57;4.70;99.90
15103;DHT22;7652;53.584;9.998;2023-12-07T11:28:35;4.80;99.90
15103;DHT22;7652;53.584;9.998;2023-12-07T11:32:00;4.80;99.90
15103;DHT22;7652;53.584;9.998;2023-12-07T11:35:33;4.90;99.90
15103;DHT22;7652;53.584;9.998;2023-12-07T11:39:17;4.90;99.90
15103;DHT22;7652;53.584;9.998;2023-12-07T11:42:49;4.90;99.90
15103;DHT22;7652;53.584;9.998;2023-12-07T11:46:12;4.90;99.90
15103;DHT22;7652;53.584;9.998;2023-12-07T11:49:35;4.80;99.90
15103;DHT22;7652;53.584;9.998;2023-12-07T11:52:57;4.90;99.90
15103;DHT22;7652;53.584;9.998;2023-12-07T11:56:19;5.00;99.90
15103;DHT22;7652;53.584;9.998;2023-12-07T11:59:43;4.90;99.90
15103;DHT22;7652;53.584;9.998;2023-12-07T12:03:07;5.00;99.90
15103;DHT22;7652;53.584;9.998;2023-12-07T12:06:29;5.00;99.90
15103;DHT22;7652;53.584;9.998;2023-12-07T12:09:51;5.10;99.90
15103;DHT22;7652;53.584;9.998;2023-12-07T12:13:12;5.10;99.90
15103;DHT22;7652;53.584;9.998;2023-12-07T12:16:34;5.00;99.90
15103;DHT22;7652;53.584;9.998;2023-12-07T12:19:57;5.00;99.90
15103;DHT22;7652;53.584;9.998;2023-12-07T12:23:19;5.00;99.90
15103;DHT22;7652;53.584;9.998;2023-12-07T12:26:42;5.00;99.90
15103;DHT22;7652;53.584;9.998;2023-12-07T12:30:05;5.10;99.90
15103;DHT22;7652;53.584;9.998;2023-12-07T12:33:27;4.90;99.90
15103;DHT22;7652;53.584;9.998;2023-12-07T12:36:50;4.90;99.90
15103;DHT22;7652;53.584;9.998;2023-12-07T12:40:13;4.70;99.90
15103;DHT22;7652;53.584;9.998;2023-12-07T12:43:36;4.70;99.90
15103;DHT22;7652;53.584;9.998;2023-12-07T12:46:57;4.90;99.90
15103;DHT22;7652;53.584;9.998;2023-12-07T12:50:33;4.70;99.90
15103;DHT22;7652;53.584;9.998;2023-12-07T12:53:57;4.50;99.90
15103;DHT22;7652;53.584;9.998;2023-12-07T12:57:20;4.60;99.90
15103;DHT22;7652;53.584;9.998;2023-12-07T13:00:42;4.60;99.90
15103;DHT22;7652;53.584;9.998;2023-12-07T13:04:04;4.60;99.90
15103;DHT22;7652;53.584;9.998;2023-12-07T13:07:26;4.90;99.90
15103;DHT22;7652;53.584;9.998;2023-12-07T13:10:50;5.00;99.90
15103;DHT22;7652;53.584;9.998;2023-12-07T13:14:12;5.20;99.90
15103;DHT22;7652;53.584;9.998;2023-12-07T13:17:34;5.10;99.90
15103;DHT22;7652;53.584;9.998;2023-12-07T13:20:56;5.20;99.90
15103;DHT22;7652;53.584;9.998;2023-12-07T13:24:18;5.30;99.90
15103;DHT22;7652;53.584;9.998;2023-12-07T13:27:41;5.10;99.90
15103;DHT22;7652;53.584;9.998;2023-12-07T13:31:03;5.00;99.90
15103;DHT22;7652;53.584;9.998;2023-12-07T13:34:25;5.00;99.90
15103;DHT22;7652;53.584;9.998;2023-12-07T13:37:47;5.10;99.90
15103;DHT22;7652;53.584;9.998;2023-12-07T13:41:09;4.70;99.90
15103;DHT22;7652;53.584;9.998;2023-12-07T13:44:32;4.80;99.90
15103;DHT22;7652;53.584;9.998;2023-12-07T13:47:53;4.90;99.90
15103;DHT22;7652;53.584;9.998;2023-12-07T13:51:15;4.90;99.90
15103;DHT22;7652;53.584;9.998;2023-12-07T13:54:38;5.00;99.90
15103;DHT22;7652;53.584;9.998;2023-12-07T13:58:13;5.00;99.90
15103;DHT22;7652;53.584;9.998;2023-12-07T14:01:36;4.90;99.90
15103;DHT22;7652;53.584;9.998;2023-12-07T14:04:59;4.80;99.90
15103;DHT22;7652;53.584;9.998;2023-12-07T14:08:21;4.90;99.90
15103;DHT22;7652;53.584;9.998;2023-12-07T14:11:43;4.90;99.90
15103;DHT22;7652;53.584;9.998;2023-12-07T14:15:06;4.80;99.90
15103;DHT22;7652;53.584;9.998;2023-12-07T14:18:29;4.90;99.90
15103;DHT22;7652;53.584;9.998;2023-12-07T14:21:51;4.70;99.90
15103;DHT22;7652;53.584;9.998;2023-12-07T14:25:15;4.60;99.90
15103;DHT22;7652;53.584;9.998;2023-12-07T14:28:38;4.70;99.90
15103;DHT22;7652;53.584;9.998;2023-12-07T14:32:00;4.80;99.90
15103;DHT22;7652;53.584;9.998;2023-12-07T14:35:25;4.80;99.90
15103;DHT22;7652;53.584;9.998;2023-12-07T14:38:47;4.80;99.90
15103;DHT22;7652;53.584;9.998;2023-12-07T14:42:08;4.60;99.90
15103;DHT22;7652;53.584;9.998;2023-12-07T14:45:30;4.70;99.90
15103;DHT22;7652;53.584;9.998;2023-12-07T14:48:52;4.50;99.90
15103;DHT22;7652;53.584;9.998;2023-12-07T14:52:15;4.50;99.90
15103;DHT22;7652;53.584;9.998;2023-12-07T14:55:36;4.60;99.90
15103;DHT22;7652;53.584;9.998;2023-12-07T14:58:58;4.70;99.90
15103;DHT22;7652;53.584;9.998;2023-12-07T15:02:19;4.50;99.90
15103;DHT22;7652;53.584;9.998;2023-12-07T15:05:41;4.50;99.90
15103;DHT22;7652;53.584;9.998;2023-12-07T15:09:03;4.30;99.90
15103;DHT22;7652;53.584;9.998;2023-12-07T15:12:27;4.40;99.90
15103;DHT22;7652;53.584;9.998;2023-12-07T15:15:49;4.40;99.90
15103;DHT22;7652;53.584;9.998;2023-12-07T15:19:10;4.40;99.90
15103;DHT22;7652;53.584;9.998;2023-12-07T15:22:32;4.50;99.90
15103;DHT22;7652;53.584;9.998;2023-12-07T15:25:55;4.30;99.90
15103;DHT22;7652;53.584;9.998;2023-12-07T15:29:17;4.30;99.90
15103;DHT22;7652;53.584;9.998;2023-12-07T15:32:38;4.10;99.90
15103;DHT22;7652;53.584;9.998;2023-12-07T15:36:02;4.20;99.90
15103;DHT22;7652;53.584;9.998;2023-12-07T15:39:24;4.00;99.90
15103;DHT22;7652;53.584;9.998;2023-12-07T15:42:47;4.30;99.90
15103;DHT22;7652;53.584;9.998;2023-12-07T15:46:09;4.20;99.90
15103;DHT22;7652;53.584;9.998;2023-12-07T15:49:31;4.30;99.90
15103;DHT22;7652;53.584;9.998;2023-12-07T15:52:53;4.50;99.90
15103;DHT22;7652;53.584;9.998;2023-12-07T15:56:14;4.50;99.90
15103;DHT22;7652;53.584;9.998;2023-12-07T15:59:44;4.60;99.90
15103;DHT22;7652;53.584;9.998;2023-12-07T16:03:06;4.50;99.90
15103;DHT22;7652;53.584;9.998;2023-12-07T16:06:27;4.40;99.90
15103;DHT22;7652;53.584;9.998;2023-12-07T16:09:49;4.30;99.90
15103;DHT22;7652;53.584;9.998;2023-12-07T16:13:10;4.20;99.90
15103;DHT22;7652;53.584;9.998;2023-12-07T16:16:33;4.30;99.90
15103;DHT22;7652;53.584;9.998;2023-12-07T16:19:54;4.40;99.90
15103;DHT22;7652;53.584;9.998;2023-12-07T16:23:16;4.40;99.90
15103;DHT22;7652;53.584;9.998;2023-12-07T16:26:37;4.30;99.90
15103;DHT22;7652;53.584;9.998;2023-12-07T16:29:59;4.10;99.90
15103;DHT22;7652;53.584;9.998;2023-12-07T16:33:22;4.10;99.90
15103;DHT22;7652;53.584;9.998;2023-12-07T16:36:43;4.30;99.90
15103;DHT22;7652;53.584;9.998;2023-12-07T16:40:07;4.30;99.90
15103;DHT22;7652;53.584;9.998;2023-12-07T16:43:29;4.00;99.90
15103;DHT22;7652;53.584;9.998;2023-12-07T16:46:50;4.00;99.90
15103;DHT22;7652;53.584;9.998;2023-12-07T16:50:13;4.00;99.90
15103;DHT22;7652;53.584;9.998;2023-12-07T16:53:34;4.00;99.90
15103;DHT22;7652;53.584;9.998;2023-12-07T16:56:56;4.10;99.90
15103;DHT22;7652;53.584;9.998;2023-12-07T17:00:17;4.10;99.90
15103;DHT22;7652;53.584;9.998;2023-12-07T17:03:39;4.10;99.90
15103;DHT22;7652;53.584;9.998;2023-12-07T17:07:03;4.20;99.90
15103;DHT22;7652;53.584;9.998;2023-12-07T17:10:25;4.30;99.90
15103;DHT22;7652;53.584;9.998;2023-12-07T17:13:47;4.20;99.90
15103;DHT22;7652;53.584;9.998;2023-12-07T17:17:08;4.20;99.90
15103;DHT22;7652;53.584;9.998;2023-12-07T17:20:31;4.30;99.90
15103;DHT22;7652;53.584;9.998;2023-12-07T17:23:54;4.40;99.90
15103;DHT22;7652;53.584;9.998;2023-12-07T17:27:15;4.30;99.90
15103;DHT22;7652;53.584;9.998;2023-12-07T17:30:36;4.30;99.90
15103;DHT22;7652;53.584;9.998;2023-12-07T17:33:58;4.10;99.90
15103;DHT22;7652;53.584;9.998;2023-12-07T17:37:20;4.10;99.90
15103;DHT22;7652;53.584;9.998;2023-12-07T17:40:43;4.20;99.90
15103;DHT22;7652;53.584;9.998;2023-12-07T17:44:05;4.10;99.90
15103;DHT22;7652;53.584;9.998;2023-12-07T17:47:26;4.10;99.90
15103;DHT22;7652;53.584;9.998;2023-12-07T17:50:48;4.00;99.90
15103;DHT22;7652;53.584;9.998;2023-12-07T17:54:12;4.00;99.90
15103;DHT22;7652;53.584;9.998;2023-12-07T17:57:36;4.00;99.90
15103;DHT22;7652;53.584;9.998;2023-12-07T18:00:58;3.90;99.90
15103;DHT22;7652;53.584;9.998;2023-12-07T18:04:19;3.90;99.90
15103;DHT22;7652;53.584;9.998;2023-12-07T18:07:42;3.90;99.90
15103;DHT22;7652;53.584;9.998;2023-12-07T18:11:04;3.80;99.90
15103;DHT22;7652;53.584;9.998;2023-12-07T18:14:28;3.90;99.90
15103;DHT22;7652;53.584;9.998;2023-12-07T18:17:50;3.70;99.90
15103;DHT22;7652;53.584;9.998;2023-12-07T18:21:12;3.60;99.90
15103;DHT22;7652;53.584;9.998;2023-12-07T18:24:34;3.70;99.90
15103;DHT22;7652;53.584;9.998;2023-12-07T18:27:55;3.70;99.90
15103;DHT22;7652;53.584;9.998;2023-12-07T18:31:18;3.60;99.90
15103;DHT22;7652;53.584;9.998;2023-12-07T18:34:40;3.80;99.90
15103;DHT22;7652;53.584;9.998;2023-12-07T18:38:02;3.60;99.90
15103;DHT22;7652;53.584;9.998;2023-12-07T18:41:24;3.50;99.90
15103;DHT22;7652;53.584;9.998;2023-12-07T18:44:46;3.40;99.90
15103;DHT22;7652;53.584;9.998;2023-12-07T18:48:09;3.40;99.90
15103;DHT22;7652;53.584;9.998;2023-12-07T18:51:31;3.40;99.90
15103;DHT22;7652;53.584;9.998;2023-12-07T18:54:53;3.30;99.90
15103;DHT22;7652;53.584;9.998;2023-12-07T18:58:15;3.50;99.90
15103;DHT22;7652;53.584;9.998;2023-12-07T19:01:36;3.40;99.90
15103;DHT22;7652;53.584;9.998;2023-12-07T19:04:59;3.30;99.90
15103;DHT22;7652;53.584;9.998;2023-12-07T19:08:21;3.30;99.90
15103;DHT22;7652;53.584;9.998;2023-12-07T19:11:43;3.40;99.90
15103;DHT22;7652;53.584;9.998;2023-12-07T19:15:07;3.40;99.90
15103;DHT22;7652;53.584;9.998;2023-12-07T19:18:29;3.60;99.90
15103;DHT22;7652;53.584;9.998;2023-12-07T19:21:55;3.60;99.90
15103;DHT22;7652;53.584;9.998;2023-12-07T19:25:16;3.60;99.90
15103;DHT22;7652;53.584;9.998;2023-12-07T19:28:37;3.60;99.90
15103;DHT22;7652;53.584;9.998;2023-12-07T19:31:59;3.60;99.90
15103;DHT22;7652;53.584;9.998;2023-12-07T19:35:21;3.60;99.90
15103;DHT22;7652;53.584;9.998;2023-12-07T19:38:43;3.60;99.90
15103;DHT22;7652;53.584;9.998;2023-12-07T19:42:05;3.60;99.90
15103;DHT22;7652;53.584;9.998;2023-12-07T19:45:27;3.60;99.90
15103;DHT22;7652;53.584;9.998;2023-12-07T19:48:50;3.70;99.90
15103;DHT22;7652;53.584;9.998;2023-12-07T19:52:13;3.60;99.90
15103;DHT22;7652;53.584;9.998;2023-12-07T19:55:36;3.70;99.90
15103;DHT22;7652;53.584;9.998;2023-12-07T19:58:58;3.90;99.90
15103;DHT22;7652;53.584;9.998;2023-12-07T20:02:20;3.70;99.90
15103;DHT22;7652;53.584;9.998;2023-12-07T20:05:41;3.70;99.90
15103;DHT22;7652;53.584;9.998;2023-12-07T20:09:03;3.70;99.90
15103;DHT22;7652;53.584;9.998;2023-12-07T20:12:27;3.70;99.90
15103;DHT22;7652;53.584;9.998;2023-12-07T20:15:49;3.50;99.90
15103;DHT22;7652;53.584;9.998;2023-12-07T20:19:11;3.50;99.90
15103;DHT22;7652;53.584;9.998;2023-12-07T20:22:33;3.50;99.90
15103;DHT22;7652;53.584;9.998;2023-12-07T20:25:54;3.60;99.90
15103;DHT22;7652;53.584;9.998;2023-12-07T20:29:17;3.50;99.90
15103;DHT22;7652;53.584;9.998;2023-12-07T20:32:39;3.70;99.90
15103;DHT22;7652;53.584;9.998;2023-12-07T20:36:01;3.60;99.90
15103;DHT22;7652;53.584;9.998;2023-12-07T20:39:23;3.60;99.90
15103;DHT22;7652;53.584;9.998;2023-12-07T20:42:45;3.50;99.90
15103;DHT22;7652;53.584;9.998;2023-12-07T20:46:08;3.40;99.90
15103;DHT22;7652;53.584;9.998;2023-12-07T20:49:30;3.50;99.90
15103;DHT22;7652;53.584;9.998;2023-12-07T20:52:51;3.60;99.90
15103;DHT22;7652;53.584;9.998;2023-12-07T20:56:12;3.60;99.90
15103;DHT22;7652;53.584;9.998;2023-12-07T20:59:38;3.60;99.90
15103;DHT22;7652;53.584;9.998;2023-12-07T21:03:01;3.50;99.90
15103;DHT22;7652;53.584;9.998;2023-12-07T21:06:23;3.40;99.90
15103;DHT22;7652;53.584;9.998;2023-12-07T21:09:46;3.40;99.90
15103;DHT22;7652;53.584;9.998;2023-12-07T21:13:08;3.40;99.90
15103;DHT22;7652;53.584;9.998;2023-12-07T21:16:30;3.30;99.90
15103;DHT22;7652;53.584;9.998;2023-12-07T21:19:53;3.30;99.90
15103;DHT22;7652;53.584;9.998;2023-12-07T21:23:14;3.10;99.90
15103;DHT22;7652;53.584;9.998;2023-12-07T21:26:36;3.10;99.90
15103;DHT22;7652;53.584;9.998;2023-12-07T21:29:57;3.20;99.90
15103;DHT22;7652;53.584;9.998;2023-12-07T21:33:19;3.30;99.90
15103;DHT22;7652;53.584;9.998;2023-12-07T21:36:43;3.20;99.90
15103;DHT22;7652;53.584;9.998;2023-12-07T21:40:05;3.10;99.90
15103;DHT22;7652;53.584;9.998;2023-12-07T21:43:27;3.10;99.90
15103;DHT22;7652;53.584;9.998;2023-12-07T21:46:48;3.10;99.90
15103;DHT22;7652;53.584;9.998;2023-12-07T21:50:10;3.10;99.90
15103;DHT22;7652;53.584;9.998;2023-12-07T21:53:32;3.10;99.90
15103;DHT22;7652;53.584;9.998;2023-12-07T21:56:55;3.00;99.90
15103;DHT22;7652;53.584;9.998;2023-12-07T22:00:17;3.20;99.90
15103;DHT22;7652;53.584;9.998;2023-12-07T22:03:39;3.20;99.90
15103;DHT22;7652;53.584;9.998;2023-12-07T22:07:00;3.20;99.90
15103;DHT22;7652;53.584;9.998;2023-12-07T22:10:23;3.20;99.90
15103;DHT22;7652;53.584;9.998;2023-12-07T22:13:49;3.10;99.90
15103;DHT22;7652;53.584;9.998;2023-12-07T22:17:10;3.00;99.90